createdAt,value
2019-03-28T00:01:14.864Z,8.80
2019-03-28T00:03:56.107Z,8.53
2019-03-28T00:06:37.243Z,9.70
2019-03-28T00:09:17.795Z,9.70
2019-03-28T00:15:03.594Z,9.57
2019-03-28T00:17:44.435Z,9.10
2019-03-28T00:20:25.028Z,9.23
2019-03-28T00:23:10.367Z,9.60
2019-03-28T00:25:51.307Z,9.33
2019-03-28T00:28:32.421Z,9.67
2019-03-28T00:31:13.185Z,9.70
2019-03-28T00:33:53.887Z,9.33
2019-03-28T00:36:34.472Z,9.77
2019-03-28T00:39:15.274Z,9.20
2019-03-28T00:41:55.947Z,9.73
2019-03-28T00:44:37.206Z,9.40
2019-03-28T00:47:18.331Z,9.23
2019-03-28T00:49:59.160Z,9.87
2019-03-28T00:52:39.839Z,9.07
2019-03-28T00:55:20.374Z,9.30
2019-03-28T00:58:01.600Z,9.40
2019-03-28T01:00:42.116Z,9.17
2019-03-28T01:03:22.853Z,9.60
2019-03-28T01:06:03.647Z,9.73
2019-03-28T01:08:44.272Z,10.00
2019-03-28T01:11:24.806Z,9.53
2019-03-28T01:14:05.418Z,9.77
2019-03-28T01:16:46.052Z,9.67
2019-03-28T01:19:26.787Z,10.17
2019-03-28T01:22:07.634Z,9.93
2019-03-28T01:24:48.868Z,10.53
2019-03-28T01:27:29.467Z,9.77
2019-03-28T01:30:10.259Z,9.97
2019-03-28T01:32:50.953Z,9.57
2019-03-28T01:35:31.650Z,10.30
2019-03-28T01:38:12.208Z,10.10
2019-03-28T01:40:53.003Z,9.90
2019-03-28T01:43:33.525Z,10.10
2019-03-28T01:46:14.289Z,9.83
2019-03-28T01:48:54.775Z,9.40
2019-03-28T01:51:35.299Z,10.10
2019-03-28T01:54:16.110Z,10.17
2019-03-28T01:57:09.975Z,10.63
2019-03-28T01:59:39.521Z,10.70
2019-03-28T02:02:20.647Z,10.60
2019-03-28T02:05:01.655Z,10.53
2019-03-28T02:07:42.653Z,10.87
2019-03-28T02:10:23.126Z,10.33
2019-03-28T02:13:03.739Z,10.50
2019-03-28T02:15:44.670Z,11.77
2019-03-28T02:21:44.289Z,11.07
2019-03-28T02:24:24.811Z,11.33
2019-03-28T02:27:05.511Z,10.87
2019-03-28T02:29:46.175Z,11.23
2019-03-28T02:32:26.795Z,12.10
2019-03-28T02:35:07.336Z,11.07
2019-03-28T02:37:47.775Z,11.37
2019-03-28T02:40:28.677Z,10.70
2019-03-28T02:43:09.547Z,10.10
2019-03-28T02:45:50.212Z,10.63
2019-03-28T02:48:31.460Z,11.20
2019-03-28T02:51:12.250Z,11.10
2019-03-28T02:53:52.625Z,10.60
2019-03-28T02:56:52.584Z,11.03
2019-03-28T02:59:33.810Z,9.57
2019-03-28T03:02:14.696Z,10.10
2019-03-28T03:04:55.268Z,10.73
2019-03-28T03:07:36.176Z,10.20
2019-03-28T03:10:17.593Z,10.07
2019-03-28T03:12:58.544Z,10.20
2019-03-28T03:15:39.132Z,10.00
2019-03-28T03:18:21.579Z,9.27
2019-03-28T03:21:02.128Z,10.70
2019-03-28T03:23:42.848Z,10.07
2019-03-28T03:26:23.884Z,9.37
2019-03-28T03:29:04.448Z,9.67
2019-03-28T03:31:45.233Z,10.07
2019-03-28T03:34:25.710Z,9.33
2019-03-28T03:37:06.267Z,9.90
2019-03-28T03:39:47.559Z,9.50
2019-03-28T03:42:28.008Z,9.97
2019-03-28T03:45:09.361Z,9.00
2019-03-28T03:47:50.344Z,8.93
2019-03-28T03:50:30.884Z,9.90
2019-03-28T03:53:11.604Z,9.10
2019-03-28T03:55:52.383Z,9.50
2019-03-28T03:58:33.262Z,9.33
2019-03-28T04:01:14.164Z,8.77
2019-03-28T04:03:55.781Z,8.63
2019-03-28T04:06:36.504Z,9.20
2019-03-28T04:09:17.395Z,9.80
2019-03-28T04:11:58.335Z,9.67
2019-03-28T04:14:39.111Z,9.47
2019-03-28T04:17:20.108Z,9.53
2019-03-28T04:20:00.734Z,9.63
2019-03-28T04:22:41.576Z,9.03
2019-03-28T04:25:22.024Z,9.43
2019-03-28T04:28:02.588Z,9.67
2019-03-28T04:30:43.135Z,9.73
2019-03-28T04:33:24.316Z,9.67
2019-03-28T04:36:05.053Z,10.13
2019-03-28T04:38:45.872Z,9.70
2019-03-28T04:41:26.539Z,9.87
2019-03-28T04:44:07.311Z,10.30
2019-03-28T04:46:48.316Z,10.63
2019-03-28T04:49:29.381Z,10.07
2019-03-28T04:52:09.915Z,9.70
2019-03-28T04:54:50.974Z,9.63
2019-03-28T04:57:31.673Z,9.43
2019-03-28T05:00:12.335Z,10.20
2019-03-28T05:02:53.555Z,9.67
2019-03-28T05:05:34.305Z,9.73
2019-03-28T05:08:14.931Z,9.43
2019-03-28T05:10:55.678Z,8.87
2019-03-28T05:13:36.460Z,9.97
2019-03-28T05:16:17.472Z,9.43
2019-03-28T05:18:58.666Z,9.10
2019-03-28T05:21:39.243Z,10.13
2019-03-28T05:24:20.358Z,10.03
2019-03-28T05:27:00.990Z,9.17
2019-03-28T05:29:42.064Z,10.13
2019-03-28T05:32:23.266Z,10.13
2019-03-28T05:35:04.096Z,9.80
2019-03-28T05:37:44.614Z,9.40
2019-03-28T05:40:25.207Z,9.33
2019-03-28T05:43:06.030Z,9.53
2019-03-28T05:45:47.687Z,10.00
2019-03-28T05:48:28.996Z,9.63
2019-03-28T05:51:09.830Z,9.90
2019-03-28T05:53:50.511Z,8.70
2019-03-28T05:56:31.238Z,8.97
2019-03-28T05:59:11.906Z,9.60
2019-03-28T06:01:52.818Z,9.70
2019-03-28T06:04:34.356Z,9.30
2019-03-28T06:07:15.110Z,10.27
2019-03-28T06:09:55.927Z,9.10
2019-03-28T06:12:36.643Z,9.67
2019-03-28T06:18:25.395Z,9.73
2019-03-28T06:21:06.067Z,10.13
2019-03-28T06:23:46.879Z,9.60
2019-03-28T06:26:27.503Z,8.73
2019-03-28T06:29:08.750Z,9.83
2019-03-28T06:31:55.251Z,10.00
2019-03-28T06:34:32.336Z,9.60
2019-03-28T06:37:13.323Z,9.63
2019-03-28T06:39:54.194Z,9.17
2019-03-28T06:42:35.131Z,9.63
2019-03-28T06:45:15.928Z,8.97
2019-03-28T06:47:44.498Z,9.87
2019-03-28T06:50:32.507Z,9.27
2019-03-28T06:53:00.999Z,9.30
2019-03-28T06:55:41.644Z,10.67
2019-03-28T06:58:22.173Z,9.77
2019-03-28T07:01:03.154Z,8.87
2019-03-28T07:03:43.494Z,9.57
2019-03-28T07:06:24.115Z,9.73
2019-03-28T07:09:06.315Z,10.10
2019-03-28T07:11:47.415Z,10.33
2019-03-28T07:14:28.325Z,10.17
2019-03-28T07:17:09.548Z,10.17
2019-03-28T07:19:50.359Z,8.87
2019-03-28T07:22:31.142Z,9.47
2019-03-28T07:25:11.760Z,9.67
2019-03-28T07:27:52.267Z,9.53
2019-03-28T07:30:33.211Z,9.47
2019-03-28T07:33:14.038Z,9.83
2019-03-28T07:35:55.027Z,11.10
2019-03-28T07:38:35.356Z,9.63
2019-03-28T07:41:16.636Z,9.13
2019-03-28T07:43:57.759Z,9.63
2019-03-28T07:46:38.851Z,9.80
2019-03-28T07:49:20.217Z,9.90
2019-03-28T07:52:01.563Z,9.63
2019-03-28T07:54:42.920Z,9.43
2019-03-28T07:57:23.951Z,10.07
2019-03-28T08:00:05.413Z,8.90
2019-03-28T08:02:46.553Z,9.00
2019-03-28T08:05:27.319Z,9.63
2019-03-28T08:08:07.816Z,9.67
2019-03-28T08:10:48.356Z,8.80
2019-03-28T08:13:29.260Z,9.47
2019-03-28T08:16:09.654Z,8.70
2019-03-28T08:18:50.103Z,8.40
2019-03-28T08:21:30.600Z,9.33
2019-03-28T08:24:11.319Z,9.03
2019-03-28T08:26:52.164Z,8.77
2019-03-28T08:29:32.963Z,8.20
2019-03-28T08:32:15.439Z,8.83
2019-03-28T08:34:56.291Z,9.00
2019-03-28T08:37:36.903Z,8.20
2019-03-28T08:40:17.691Z,8.97
2019-03-28T08:42:58.119Z,7.47
2019-03-28T08:45:38.541Z,8.03
2019-03-28T08:48:19.044Z,7.90
2019-03-28T08:50:59.612Z,7.77
2019-03-28T08:53:40.131Z,7.90
2019-03-28T08:56:20.563Z,7.37
2019-03-28T08:59:00.878Z,8.60
2019-03-28T09:01:41.332Z,8.47
2019-03-28T09:04:22.076Z,7.53
2019-03-28T09:07:02.867Z,6.83
2019-03-28T09:09:43.534Z,7.73
2019-03-28T09:12:24.182Z,7.93
2019-03-28T09:15:04.719Z,7.43
2019-03-28T09:17:45.412Z,6.77
2019-03-28T09:20:26.099Z,6.80
2019-03-28T09:23:06.495Z,8.10
2019-03-28T09:25:47.052Z,7.20
2019-03-28T09:28:27.425Z,6.80
2019-03-28T09:31:19.194Z,7.03
2019-03-28T09:33:50.196Z,7.33
2019-03-28T09:36:31.031Z,7.03
2019-03-28T09:39:11.433Z,7.40
2019-03-28T09:41:52.196Z,7.67
2019-03-28T09:44:32.987Z,7.50
2019-03-28T09:47:13.505Z,7.83
2019-03-28T09:49:54.124Z,7.17
2019-03-28T09:52:34.992Z,6.83
2019-03-28T09:55:18.760Z,5.97
2019-03-28T09:57:58.591Z,6.37
2019-03-28T10:00:39.245Z,6.07
2019-03-28T10:03:19.856Z,5.87
2019-03-28T10:06:00.303Z,5.90
2019-03-28T10:08:41.117Z,6.00
2019-03-28T10:11:21.895Z,6.23
2019-03-28T10:14:02.532Z,6.07
2019-03-28T10:16:43.443Z,6.10
2019-03-28T10:19:24.223Z,5.43
2019-03-28T10:22:05.343Z,5.90
2019-03-28T10:24:46.340Z,4.67
2019-03-28T10:27:27.063Z,4.83
2019-03-28T10:30:07.751Z,5.53
2019-03-28T10:32:48.231Z,5.03
2019-03-28T10:35:56.892Z,4.97
2019-03-28T10:38:44.783Z,5.30
2019-03-28T10:41:32.712Z,5.07
2019-03-28T10:44:20.615Z,5.07
2019-03-28T10:47:08.552Z,4.50
2019-03-28T10:49:56.624Z,5.27
2019-03-28T10:52:44.560Z,5.10
2019-03-28T10:55:25.236Z,5.00
2019-03-28T10:58:17.722Z,4.27
2019-03-28T11:00:48.593Z,3.83
2019-03-28T11:03:29.366Z,4.07
2019-03-28T11:06:10.315Z,4.50
2019-03-28T11:08:51.159Z,4.40
2019-03-28T11:11:32.020Z,4.43
2019-03-28T11:14:12.863Z,3.40
2019-03-28T11:16:53.693Z,3.33
2019-03-28T11:19:34.691Z,3.00
2019-03-28T11:22:15.312Z,3.10
2019-03-28T11:24:56.032Z,2.70
2019-03-28T11:27:36.643Z,3.20
2019-03-28T11:30:18.568Z,3.07
2019-03-28T11:33:00.015Z,3.60
2019-03-28T11:35:40.497Z,4.00
2019-03-28T11:38:21.163Z,3.60
2019-03-28T11:41:01.664Z,3.60
2019-03-28T11:43:42.798Z,3.60
2019-03-28T11:46:23.349Z,3.70
2019-03-28T11:49:04.111Z,4.47
2019-03-28T11:51:44.735Z,4.10
2019-03-28T11:54:25.537Z,3.63
2019-03-28T11:57:05.999Z,4.03
2019-03-28T11:59:46.935Z,4.43
2019-03-28T12:02:27.561Z,4.00
2019-03-28T12:05:08.304Z,3.80
2019-03-28T12:07:48.944Z,3.87
2019-03-28T12:10:57.567Z,4.03
2019-03-28T12:13:45.505Z,3.67
2019-03-28T12:16:33.463Z,4.00
2019-03-28T12:19:21.643Z,3.87
2019-03-28T12:22:10.011Z,3.73
2019-03-28T12:24:57.983Z,4.10
2019-03-28T12:27:46.377Z,4.20
2019-03-28T12:30:35.006Z,4.20
2019-03-28T12:33:23.626Z,3.93
2019-03-28T12:36:11.994Z,4.67
2019-03-28T12:38:59.887Z,3.93
2019-03-28T12:41:47.795Z,5.07
2019-03-28T12:44:35.727Z,4.03
2019-03-28T12:47:23.634Z,3.90
2019-03-28T12:50:12.133Z,3.83
2019-03-28T12:53:00.035Z,3.40
2019-03-28T12:55:40.933Z,4.20
2019-03-28T12:58:22.429Z,5.30
2019-03-28T13:01:03.190Z,4.40
2019-03-28T13:03:45.836Z,5.30
2019-03-28T13:06:25.967Z,6.33
2019-03-28T13:09:06.792Z,4.83
2019-03-28T13:11:47.747Z,4.03
2019-03-28T13:14:31.196Z,4.07
2019-03-28T13:17:10.960Z,4.40
2019-03-28T13:19:51.788Z,4.07
2019-03-28T13:22:32.596Z,3.80
2019-03-28T13:25:13.470Z,3.43
2019-03-28T13:27:54.087Z,3.77
2019-03-28T13:30:34.749Z,4.00
2019-03-28T13:33:15.336Z,3.97
2019-03-28T13:35:56.256Z,3.73
2019-03-28T13:38:36.855Z,3.47
2019-03-28T13:41:17.548Z,3.50
2019-03-28T13:43:58.967Z,3.30
2019-03-28T13:46:39.533Z,3.20
2019-03-28T13:49:20.423Z,3.83
2019-03-28T13:52:01.151Z,3.13
2019-03-28T13:54:42.104Z,3.03
2019-03-28T13:57:22.558Z,3.70
2019-03-28T14:00:03.289Z,3.53
2019-03-28T14:02:55.507Z,3.33
2019-03-28T14:05:26.673Z,3.40
2019-03-28T14:08:07.583Z,3.73
2019-03-28T14:10:48.523Z,3.30
2019-03-28T14:13:29.452Z,3.30
2019-03-28T14:16:10.591Z,3.43
2019-03-28T14:18:51.304Z,4.90
2019-03-28T14:21:32.182Z,4.70
2019-03-28T14:24:13.408Z,4.50
2019-03-28T14:26:54.459Z,5.40
2019-03-28T14:29:35.106Z,5.17
2019-03-28T14:32:15.707Z,5.60
2019-03-28T14:34:56.497Z,5.60
2019-03-28T14:37:40.627Z,5.10
2019-03-28T14:40:20.479Z,4.60
2019-03-28T14:43:01.076Z,4.70
2019-03-28T14:45:41.764Z,4.50
2019-03-28T14:48:22.116Z,4.37
2019-03-28T14:51:03.098Z,4.23
2019-03-28T14:53:43.902Z,4.10
2019-03-28T14:56:24.851Z,4.07
2019-03-28T14:59:06.116Z,4.10
2019-03-28T15:01:46.961Z,4.00
2019-03-28T15:04:15.522Z,4.37
2019-03-28T15:07:03.518Z,4.20
2019-03-28T15:09:51.446Z,3.83
2019-03-28T15:12:39.354Z,3.67
2019-03-28T15:15:27.287Z,3.77
2019-03-28T15:18:15.190Z,4.17
2019-03-28T15:21:03.125Z,4.30
2019-03-28T15:23:51.032Z,4.53
2019-03-28T15:26:39.068Z,4.20
2019-03-28T15:29:26.976Z,4.40
2019-03-28T15:32:14.903Z,4.20
2019-03-28T15:35:02.838Z,3.80
2019-03-28T15:37:50.814Z,4.07
2019-03-28T15:40:38.749Z,4.67
2019-03-28T15:43:26.655Z,4.07
2019-03-28T15:46:14.583Z,4.00
2019-03-28T15:49:02.503Z,5.00
2019-03-28T15:51:50.438Z,5.03
2019-03-28T15:54:38.334Z,4.40
2019-03-28T15:57:19.095Z,4.50
2019-03-28T16:00:00.490Z,4.63
2019-03-28T16:02:41.184Z,4.47
2019-03-28T16:05:22.063Z,4.63
2019-03-28T16:08:02.619Z,5.10
2019-03-28T16:10:43.475Z,4.70
2019-03-28T16:13:24.084Z,4.57
2019-03-28T16:16:05.047Z,4.63
2019-03-28T16:18:45.655Z,4.57
2019-03-28T16:21:26.974Z,4.57
2019-03-28T16:24:07.917Z,4.97
2019-03-28T16:26:48.614Z,4.73
2019-03-28T16:29:29.164Z,4.53
2019-03-28T16:32:09.744Z,4.37
2019-03-28T16:34:51.067Z,4.90
2019-03-28T16:37:19.655Z,4.37
2019-03-28T16:40:07.636Z,4.47
2019-03-28T16:42:55.569Z,4.20
2019-03-28T16:45:43.491Z,4.57
2019-03-28T16:48:31.404Z,4.27
2019-03-28T16:51:19.340Z,4.53
2019-03-28T16:54:07.239Z,3.90
2019-03-28T16:56:48.037Z,4.43
2019-03-28T16:59:28.888Z,4.63
2019-03-28T17:02:09.883Z,4.27
2019-03-28T17:04:50.532Z,4.47
2019-03-28T17:07:31.136Z,4.77
2019-03-28T17:10:11.987Z,4.33
2019-03-28T17:12:53.192Z,4.43
2019-03-28T17:15:33.852Z,4.97
2019-03-28T17:18:18.294Z,5.40
2019-03-28T17:20:57.858Z,5.93
2019-03-28T17:23:38.679Z,5.30
2019-03-28T17:26:19.659Z,5.30
2019-03-28T17:29:00.308Z,4.57
2019-03-28T17:31:41.275Z,4.40
2019-03-28T17:34:34.066Z,4.73
2019-03-28T17:37:04.799Z,4.77
2019-03-28T17:39:45.463Z,4.50
2019-03-28T17:42:26.358Z,5.10
2019-03-28T17:45:07.244Z,4.63
2019-03-28T17:47:48.103Z,4.40
2019-03-28T17:50:28.671Z,5.43
2019-03-28T17:53:09.737Z,5.37
2019-03-28T17:55:50.898Z,5.00
2019-03-28T17:58:31.976Z,5.07
2019-03-28T18:01:12.476Z,4.37
2019-03-28T18:03:53.072Z,4.93
2019-03-28T18:06:34.907Z,5.17
2019-03-28T18:09:15.322Z,5.20
2019-03-28T18:11:56.146Z,5.47
2019-03-28T18:14:36.658Z,5.50
2019-03-28T18:17:17.621Z,5.20
2019-03-28T18:19:58.250Z,5.23
2019-03-28T18:22:39.061Z,5.27
2019-03-28T18:25:19.570Z,5.20
2019-03-28T18:28:00.166Z,5.17
2019-03-28T18:30:40.641Z,5.10
2019-03-28T18:33:21.236Z,4.70
2019-03-28T18:36:01.580Z,5.17
2019-03-28T18:38:42.555Z,5.53
2019-03-28T18:41:23.011Z,5.97
2019-03-28T18:44:03.925Z,5.40
2019-03-28T18:46:44.668Z,5.53
2019-03-28T18:49:25.292Z,5.70
2019-03-28T18:52:07.393Z,5.83
2019-03-28T18:54:48.587Z,6.20
2019-03-28T18:57:29.056Z,6.50
2019-03-28T19:00:09.714Z,6.13
2019-03-28T19:02:50.926Z,5.93
2019-03-28T19:05:31.627Z,6.17
2019-03-28T19:08:12.241Z,6.20
2019-03-28T19:10:52.762Z,5.60
2019-03-28T19:13:33.463Z,6.07
2019-03-28T19:16:13.820Z,6.23
2019-03-28T19:18:54.572Z,5.90
2019-03-28T19:21:35.109Z,5.30
2019-03-28T19:24:16.770Z,5.87
2019-03-28T19:26:57.567Z,6.10
2019-03-28T19:29:38.129Z,6.40
2019-03-28T19:32:18.791Z,5.67
2019-03-28T19:35:02.874Z,5.53
2019-03-28T19:37:41.915Z,6.63
2019-03-28T19:40:22.883Z,6.67
2019-03-28T19:43:03.534Z,6.20
2019-03-28T19:45:44.275Z,6.30
2019-03-28T19:48:25.024Z,6.60
2019-03-28T19:51:05.806Z,6.33
2019-03-28T19:53:46.563Z,6.10
2019-03-28T19:56:27.651Z,5.83
2019-03-28T19:59:08.263Z,6.37
2019-03-28T20:01:48.564Z,6.93
2019-03-28T20:04:29.187Z,6.67
2019-03-28T20:07:20.868Z,6.73
2019-03-28T20:09:52.906Z,6.60
2019-03-28T20:12:33.739Z,7.00
2019-03-28T20:15:14.127Z,6.80
2019-03-28T20:17:54.971Z,6.47
2019-03-28T20:20:35.908Z,7.20
2019-03-28T20:23:16.860Z,6.27
2019-03-28T20:25:58.872Z,6.77
2019-03-28T20:28:40.251Z,6.77
2019-03-28T20:31:20.919Z,7.00
2019-03-28T20:34:01.419Z,6.90
2019-03-28T20:36:44.191Z,7.53
2019-03-28T20:39:25.608Z,7.60
2019-03-28T20:42:06.007Z,8.83
2019-03-28T20:44:46.723Z,8.20
2019-03-28T20:47:27.667Z,8.13
2019-03-28T20:50:08.375Z,8.47
2019-03-28T20:52:49.244Z,8.23
2019-03-28T20:55:30.055Z,7.37
2019-03-28T20:58:10.411Z,7.80
2019-03-28T21:00:51.527Z,9.40
2019-03-28T21:03:32.312Z,7.40
2019-03-28T21:06:15.477Z,7.03
2019-03-28T21:08:55.888Z,6.70
2019-03-28T21:11:36.532Z,7.23
2019-03-28T21:17:24.369Z,7.00
2019-03-28T21:20:05.414Z,7.67
2019-03-28T21:22:46.745Z,7.27
2019-03-28T21:28:46.138Z,7.60
2019-03-28T21:37:28.990Z,8.20
2019-03-28T21:39:57.647Z,8.03
2019-03-28T21:42:45.551Z,7.77
2019-03-28T21:45:33.491Z,7.73
2019-03-28T21:48:21.399Z,8.00
2019-03-28T21:51:11.530Z,7.63
2019-03-28T21:53:58.944Z,7.17
2019-03-28T21:56:41.522Z,7.77
2019-03-28T21:59:22.993Z,7.87
2019-03-28T22:02:04.339Z,8.10
2019-03-28T22:04:44.956Z,7.67
2019-03-28T22:07:25.748Z,7.40
2019-03-28T22:10:08.605Z,8.47
2019-03-28T22:12:49.200Z,7.70
2019-03-28T22:15:30.226Z,7.83
2019-03-28T22:18:10.863Z,8.37
2019-03-28T22:20:51.678Z,7.83
2019-03-28T22:23:32.967Z,8.43
2019-03-28T22:26:33.503Z,7.80
2019-03-28T22:35:38.497Z,8.20
2019-03-28T22:38:19.215Z,8.27
2019-03-28T22:41:00.158Z,8.40
2019-03-28T22:43:40.943Z,7.83
2019-03-28T22:46:21.863Z,8.40
2019-03-28T22:52:22.385Z,7.80
2019-03-28T22:55:03.059Z,9.03
2019-03-28T22:57:43.635Z,8.43
2019-03-28T23:03:32.419Z,7.47
2019-03-28T23:12:23.848Z,8.10
2019-03-28T23:18:09.979Z,7.87
2019-03-28T23:23:54.850Z,8.10
2019-03-28T23:29:43.082Z,9.00
2019-03-28T23:32:23.977Z,9.27
2019-03-28T23:35:04.471Z,9.43
2019-03-28T23:37:45.002Z,8.50
2019-03-28T23:40:26.419Z,8.70
2019-03-28T23:43:07.171Z,8.63
2019-03-28T23:45:47.783Z,7.77
2019-03-28T23:55:18.998Z,7.43
2019-03-28T23:58:00.055Z,8.10
